Time;durP1;ratioP1;P1;durP2;ratioP2;P2;SDS_P1;SDS_P2;PMS_P1;PMS_P2;Temp;Humidity;BMP_temperature;BMP_pressure;BME280_temperature;BME280_humidity;BME280_pressure;Samples;Min_cycle;Max_cycle;Signal;HPM_P1;HPM_P2
2022/01/04 00:02:06;;;;;;;1.10;1.05;;;11.10;99.90;;;;;;5073433;28;20073;-73
2022/01/04 00:04:32;;;;;;;0.10;0.10;;;11.10;99.90;;;;;;5073157;28;20040;-73
2022/01/04 00:06:58;;;;;;;0.00;0.00;;;11.10;99.90;;;;;;5069686;28;20032;-73
2022/01/04 00:09:24;;;;;;;0.10;0.10;;;11.10;99.90;;;;;;5072034;28;20102;-74
2022/01/04 00:14:21;;;;;;;0.00;0.00;;;11.00;99.90;;;;;;5077223;22;21276;-70
2022/01/04 00:16:47;;;;;;;0.00;0.00;;;11.10;99.90;;;;;;5062265;28;20031;-70
2022/01/04 00:19:13;;;;;;;0.10;0.10;;;11.10;99.90;;;;;;5072316;28;20012;-70
2022/01/04 00:21:39;;;;;;;0.00;0.00;;;11.00;99.90;;;;;;5072522;28;20526;-70
2022/01/04 00:24:06;;;;;;;0.10;0.10;;;11.00;99.90;;;;;;5069470;28;20033;-70
2022/01/04 00:26:32;;;;;;;0.10;0.10;;;11.00;99.90;;;;;;5052523;28;20021;-70
2022/01/04 00:28:57;;;;;;;1.17;1.17;;;11.00;99.90;;;;;;5034554;28;20033;-71
2022/01/04 00:31:23;;;;;;;0.00;0.00;;;11.00;99.90;;;;;;5052428;28;20111;-70
2022/01/04 00:33:50;;;;;;;0.00;0.00;;;10.90;99.90;;;;;;5065688;28;20035;-71
2022/01/04 00:36:16;;;;;;;0.10;0.10;;;10.90;99.90;;;;;;5053431;28;20082;-71
2022/01/04 00:38:42;;;;;;;0.00;0.00;;;10.90;99.90;;;;;;5056425;28;20494;-71
2022/01/04 00:41:07;;;;;;;0.10;0.10;;;10.90;99.90;;;;;;5070795;28;20498;-70
2022/01/04 00:43:33;;;;;;;0.00;0.00;;;10.90;99.90;;;;;;5056197;28;20219;-70
2022/01/04 00:46:00;;;;;;;0.10;0.10;;;10.90;99.90;;;;;;5071093;28;20024;-70
2022/01/04 00:50:52;;;;;;;0.10;0.10;;;10.90;99.90;;;;;;5053240;28;20089;-70
2022/01/04 00:53:18;;;;;;;0.03;0.03;;;10.90;99.90;;;;;;5070780;28;20029;-71
2022/01/04 00:55:44;;;;;;;0.10;0.10;;;10.90;99.90;;;;;;5067237;28;20578;-70
2022/01/04 00:58:09;;;;;;;0.10;0.10;;;10.90;99.90;;;;;;5072095;28;20021;-70
2022/01/04 01:00:36;;;;;;;0.00;0.00;;;10.90;99.90;;;;;;5055374;28;20052;-70
2022/01/04 01:03:02;;;;;;;0.10;0.10;;;10.90;99.90;;;;;;5068003;28;20068;-69
2022/01/04 01:05:28;;;;;;;0.00;0.00;;;10.80;99.90;;;;;;5071448;28;20048;-70
2022/01/04 01:07:54;;;;;;;0.05;0.05;;;10.90;99.90;;;;;;5053774;28;20028;-70
2022/01/04 01:13:06;;;;;;;0.10;0.10;;;10.80;99.90;;;;;;5051888;28;20405;-70
2022/01/04 01:15:32;;;;;;;0.10;0.10;;;10.80;99.90;;;;;;5051020;28;20115;-70
2022/01/04 01:17:58;;;;;;;0.00;0.00;;;10.90;99.90;;;;;;5064207;28;20021;-70
2022/01/04 01:20:23;;;;;;;0.10;0.10;;;10.80;99.90;;;;;;5070940;28;20025;-70
2022/01/04 01:22:49;;;;;;;0.73;0.73;;;10.80;99.90;;;;;;5053484;28;20021;-71
2022/01/04 01:25:16;;;;;;;0.10;0.10;;;10.80;99.90;;;;;;5070364;28;20500;-70
2022/01/04 01:27:42;;;;;;;0.00;0.00;;;10.80;99.90;;;;;;5051569;28;20025;-70
2022/01/04 01:30:09;;;;;;;0.00;0.00;;;10.80;99.90;;;;;;5048272;28;20028;-70
2022/01/04 01:32:35;;;;;;;0.10;0.10;;;10.80;99.90;;;;;;5071702;28;20021;-70
2022/01/04 01:35:00;;;;;;;0.10;0.10;;;10.80;99.90;;;;;;5070644;28;20463;-70
2022/01/04 01:37:27;;;;;;;0.10;0.10;;;10.80;99.90;;;;;;5071594;28;20108;-70
2022/01/04 01:39:53;;;;;;;0.10;0.10;;;10.80;99.90;;;;;;5069421;28;20031;-69
2022/01/04 01:42:19;;;;;;;0.10;0.10;;;10.80;99.90;;;;;;5071025;28;20024;-70
2022/01/04 01:44:44;;;;;;;0.10;0.10;;;10.80;99.90;;;;;;5052617;28;20375;-69
2022/01/04 01:47:10;;;;;;;0.10;0.10;;;10.70;99.90;;;;;;5069973;28;20109;-69
2022/01/04 01:49:36;;;;;;;0.10;0.10;;;10.70;99.90;;;;;;5070770;28;20055;-70
2022/01/04 01:52:02;;;;;;;0.10;0.10;;;10.70;99.90;;;;;;5070420;28;20044;-69
2022/01/04 01:54:27;;;;;;;0.00;0.00;;;10.70;99.90;;;;;;5059997;28;20064;-69
2022/01/04 01:56:53;;;;;;;0.10;0.10;;;10.70;99.90;;;;;;5069682;28;20590;-70
2022/01/04 01:59:19;;;;;;;0.05;0.05;;;10.60;99.90;;;;;;5070925;28;20512;-70
2022/01/04 02:01:45;;;;;;;0.03;0.03;;;10.60;99.90;;;;;;5070411;28;20021;-70
2022/01/04 02:04:12;;;;;;;0.10;0.10;;;10.60;99.90;;;;;;5069645;28;20371;-70
2022/01/04 02:06:37;;;;;;;0.10;0.10;;;10.60;99.90;;;;;;5070288;28;20096;-69
2022/01/04 02:09:04;;;;;;;0.10;0.10;;;10.50;99.90;;;;;;5051516;28;20120;-69
2022/01/04 02:11:31;;;;;;;0.10;0.10;;;10.60;99.90;;;;;;5049591;28;20033;-69
2022/01/04 02:14:01;;;;;;;0.10;0.10;;;10.60;99.90;;;;;;5061087;28;20081;-71
2022/01/04 02:16:28;;;;;;;0.10;0.10;;;10.60;99.90;;;;;;5070060;28;20025;-71
2022/01/04 02:19:02;;;;;;;0.00;0.00;;;10.60;99.90;;;;;;5069932;28;20044;-70
2022/01/04 02:21:27;;;;;;;;;;;10.60;99.90;;;;;;5068981;28;20462;-70
2022/01/04 02:23:53;;;;;;;0.10;0.10;;;10.60;99.90;;;;;;5069318;28;19918;-70
2022/01/04 02:26:19;;;;;;;0.10;0.10;;;10.70;99.90;;;;;;5069845;28;20021;-70
2022/01/04 02:28:46;;;;;;;0.10;0.10;;;10.70;99.90;;;;;;5052169;28;20375;-70
2022/01/04 02:31:11;;;;;;;0.10;0.10;;;10.70;99.90;;;;;;5068996;28;20039;-71
2022/01/04 02:33:37;;;;;;;0.10;0.10;;;10.70;99.90;;;;;;5069799;28;20025;-71
2022/01/04 02:36:03;;;;;;;0.10;0.10;;;10.80;99.90;;;;;;5069018;28;20512;-70
2022/01/04 02:38:29;;;;;;;0.10;0.10;;;10.80;99.90;;;;;;5061969;28;20092;-70
2022/01/04 02:40:54;;;;;;;0.00;0.00;;;10.80;99.90;;;;;;5069889;28;20059;-70
2022/01/04 02:43:20;;;;;;;0.10;0.10;;;10.80;99.90;;;;;;5069731;28;20482;-71
2022/01/04 02:45:46;;;;;;;1.25;1.25;;;10.80;99.90;;;;;;5069805;28;20032;-70
2022/01/04 02:48:12;;;;;;;0.10;0.10;;;10.80;99.90;;;;;;5068050;28;20492;-69
2022/01/04 02:50:37;;;;;;;0.10;0.10;;;10.80;99.90;;;;;;5070228;28;20036;-70
2022/01/04 02:53:03;;;;;;;0.10;0.10;;;10.80;99.90;;;;;;5068707;28;20025;-70
2022/01/04 02:55:28;;;;;;;0.10;0.10;;;10.90;99.90;;;;;;5068655;28;20486;-71
2022/01/04 02:57:54;;;;;;;0.10;0.10;;;10.90;99.90;;;;;;5067433;28;20036;-70
2022/01/04 03:00:20;;;;;;;0.10;0.10;;;11.00;99.90;;;;;;5066442;28;20512;-70
2022/01/04 03:02:46;;;;;;;0.10;0.10;;;10.90;99.90;;;;;;5069193;28;20100;-70
2022/01/04 03:05:12;;;;;;;0.10;0.10;;;10.90;99.90;;;;;;5068445;28;20050;-70
2022/01/04 03:07:38;;;;;;;0.10;0.10;;;11.00;99.90;;;;;;5069226;28;20025;-70
2022/01/04 03:10:05;;;;;;;0.00;0.00;;;11.00;99.90;;;;;;5069618;28;20033;-72
2022/01/04 03:12:30;;;;;;;0.10;0.10;;;11.00;99.90;;;;;;5069095;28;20067;-70
2022/01/04 03:14:56;;;;;;;0.03;0.03;;;11.00;99.90;;;;;;5069053;28;20060;-71
2022/01/04 03:17:22;;;;;;;0.10;0.10;;;11.00;99.90;;;;;;5069262;28;20021;-70
2022/01/04 03:19:47;;;;;;;0.00;0.00;;;11.00;99.90;;;;;;5069173;28;20025;-69
2022/01/04 03:22:13;;;;;;;0.10;0.10;;;11.00;99.90;;;;;;5068745;28;20537;-70
2022/01/04 03:24:39;;;;;;;0.00;0.00;;;11.00;99.90;;;;;;5072549;28;20552;-70
2022/01/04 03:27:05;;;;;;;0.00;0.00;;;11.10;99.90;;;;;;5073371;28;20031;-70
2022/01/04 03:29:30;;;;;;;0.00;0.00;;;11.10;99.90;;;;;;5072977;28;20536;-71
2022/01/04 03:31:57;;;;;;;0.10;0.10;;;11.10;99.90;;;;;;5068218;28;20435;-70
2022/01/04 03:34:24;;;;;;;0.00;0.00;;;11.10;99.90;;;;;;5073012;28;20482;-71
2022/01/04 03:36:50;;;;;;;0.10;0.10;;;11.10;99.90;;;;;;5073424;28;20035;-70
2022/01/04 03:39:16;;;;;;;0.00;0.00;;;11.10;99.90;;;;;;5064539;28;20025;-69
2022/01/04 03:41:44;;;;;;;0.10;0.10;;;11.10;99.90;;;;;;5072950;28;20198;-70
2022/01/04 03:44:19;;;;;;;0.10;0.10;;;11.20;99.90;;;;;;5072889;28;20037;-70
2022/01/04 03:46:50;;;;;;;0.20;0.20;;;11.20;99.90;;;;;;5073141;28;20021;-70
2022/01/04 03:49:15;;;;;;;0.10;0.10;;;11.30;99.90;;;;;;5072148;28;20482;-70
2022/01/04 03:51:41;;;;;;;0.10;0.10;;;11.20;99.90;;;;;;5072697;28;20035;-69
2022/01/04 03:54:07;;;;;;;0.00;0.00;;;11.20;99.90;;;;;;5054166;28;20021;-68
2022/01/04 03:56:33;;;;;;;0.10;0.10;;;11.20;99.90;;;;;;5072685;28;20040;-69
2022/01/04 03:58:58;;;;;;;0.10;0.10;;;11.20;99.90;;;;;;5072036;28;20449;-72
2022/01/04 04:01:24;;;;;;;0.10;0.10;;;11.20;99.90;;;;;;5065419;28;20124;-70
2022/01/04 04:03:50;;;;;;;0.00;0.00;;;11.20;99.90;;;;;;5053002;28;20025;-69
2022/01/04 04:06:15;;;;;;;0.10;0.10;;;11.20;99.90;;;;;;5060736;28;20410;-70
2022/01/04 04:08:41;;;;;;;0.10;0.10;;;11.20;99.90;;;;;;5064668;28;20436;-70
2022/01/04 04:11:07;;;;;;;1.05;1.02;;;11.30;99.90;;;;;;5072486;28;20562;-71
2022/01/04 04:13:32;;;;;;;0.10;0.10;;;11.40;99.90;;;;;;5072663;28;20024;-70
2022/01/04 04:15:58;;;;;;;0.10;0.10;;;11.30;99.90;;;;;;5071504;28;20036;-69
2022/01/04 04:18:23;;;;;;;0.03;0.03;;;11.40;99.90;;;;;;5072599;28;20054;-70
2022/01/04 04:20:49;;;;;;;0.10;0.10;;;11.40;99.90;;;;;;5070427;28;20028;-70
2022/01/04 04:23:14;;;;;;;0.00;0.00;;;11.40;99.90;;;;;;5072301;28;20020;-70
2022/01/04 04:25:41;;;;;;;0.08;0.08;;;11.40;99.90;;;;;;5071175;28;20138;-71
2022/01/04 04:28:07;;;;;;;2.08;1.05;;;11.40;99.90;;;;;;5070382;28;20028;-69
2022/01/04 04:30:33;;;;;;;0.00;0.00;;;11.40;99.90;;;;;;5069353;28;20107;-70
2022/01/04 04:32:58;;;;;;;0.00;0.00;;;11.40;99.90;;;;;;5067697;28;20502;-69
2022/01/04 04:35:24;;;;;;;0.10;0.10;;;11.40;99.90;;;;;;5068897;28;20111;-71
2022/01/04 04:37:50;;;;;;;0.10;0.10;;;11.40;99.90;;;;;;5068459;28;20036;-71
2022/01/04 04:40:15;;;;;;;0.10;0.10;;;11.30;99.90;;;;;;5071912;28;20017;-70
2022/01/04 04:42:41;;;;;;;0.00;0.00;;;11.30;99.90;;;;;;5072121;28;20013;-69
2022/01/04 04:45:08;;;;;;;0.10;0.10;;;11.30;99.90;;;;;;5068007;28;20576;-69
2022/01/04 04:47:34;;;;;;;0.10;0.10;;;11.20;99.90;;;;;;5050937;28;20384;-70
2022/01/04 04:50:00;;;;;;;0.05;0.05;;;11.20;99.90;;;;;;5071748;28;20225;-71
2022/01/04 04:52:26;;;;;;;0.00;0.00;;;11.20;99.90;;;;;;5070267;28;20147;-70
2022/01/04 04:54:51;;;;;;;0.10;0.10;;;11.30;99.90;;;;;;5071326;28;20043;-71
2022/01/04 04:57:17;;;;;;;0.03;0.03;;;11.40;99.90;;;;;;5070813;28;20099;-70
2022/01/04 04:59:43;;;;;;;0.05;0.05;;;11.30;99.90;;;;;;5062438;28;20060;-70
2022/01/04 05:02:08;;;;;;;0.00;0.00;;;11.30;99.90;;;;;;5051653;28;20021;-70
2022/01/04 05:04:35;;;;;;;0.10;0.10;;;11.30;99.90;;;;;;5051236;28;20041;-70
2022/01/04 05:07:01;;;;;;;0.00;0.00;;;11.30;99.90;;;;;;5060122;28;20033;-71
2022/01/04 05:09:27;;;;;;;0.10;0.10;;;11.30;99.90;;;;;;5071214;28;20027;-71
2022/01/04 05:11:52;;;;;;;0.00;0.00;;;11.30;99.90;;;;;;5071493;28;20029;-70
2022/01/04 05:14:18;;;;;;;0.10;0.10;;;11.20;99.90;;;;;;5069923;28;20040;-70
2022/01/04 05:16:44;;;;;;;0.00;0.00;;;11.20;99.90;;;;;;5067907;28;20456;-70
2022/01/04 05:19:10;;;;;;;0.10;0.10;;;11.20;99.90;;;;;;5064024;28;20036;-70
2022/01/04 05:21:35;;;;;;;0.10;0.10;;;11.20;99.90;;;;;;5071130;28;20107;-70
2022/01/04 05:24:01;;;;;;;0.10;0.10;;;11.20;99.90;;;;;;5061947;28;20021;-70
2022/01/04 05:26:27;;;;;;;0.10;0.10;;;11.10;99.90;;;;;;5063131;28;20078;-70
2022/01/04 05:28:52;;;;;;;0.00;0.00;;;11.20;99.90;;;;;;5070024;28;20024;-70
2022/01/04 05:31:18;;;;;;;0.00;0.00;;;11.20;99.90;;;;;;5069434;28;20543;-70
2022/01/04 05:33:44;;;;;;;0.10;0.10;;;11.10;99.90;;;;;;5070536;28;20040;-70
2022/01/04 05:36:09;;;;;;;0.10;0.10;;;11.10;99.90;;;;;;5070425;28;20035;-70
2022/01/04 05:38:35;;;;;;;0.10;0.10;;;11.10;99.90;;;;;;5068250;28;20478;-70
2022/01/04 05:41:01;;;;;;;0.00;0.00;;;11.10;99.90;;;;;;5070751;28;20037;-70
2022/01/04 05:43:26;;;;;;;0.00;0.00;;;11.00;99.90;;;;;;5070388;28;20036;-70
2022/01/04 05:45:52;;;;;;;0.00;0.00;;;11.00;99.90;;;;;;5070624;28;20025;-70
2022/01/04 05:48:20;;;;;;;0.00;0.00;;;11.00;99.90;;;;;;5070862;28;20032;-70
2022/01/04 05:50:49;;;;;;;0.10;0.10;;;11.00;99.90;;;;;;5069892;28;20048;-69
2022/01/04 05:53:15;;;;;;;0.10;0.10;;;11.00;99.90;;;;;;5072085;28;20036;-69
2022/01/04 05:55:41;;;;;;;0.45;0.45;;;11.10;99.90;;;;;;5073516;28;20027;-69
2022/01/04 05:58:07;;;;;;;0.00;0.00;;;11.00;99.90;;;;;;5073278;28;20097;-70
2022/01/04 06:00:33;;;;;;;0.10;0.10;;;11.00;99.90;;;;;;5072381;28;20493;-69
2022/01/04 06:03:00;;;;;;;0.10;0.10;;;11.00;99.90;;;;;;5070633;28;20060;-69
2022/01/04 06:05:29;;;;;;;0.00;0.00;;;11.10;99.90;;;;;;5069518;28;20040;-70
2022/01/04 06:07:55;;;;;;;0.10;0.10;;;11.00;99.90;;;;;;5061249;28;20115;-70
2022/01/04 06:10:21;;;;;;;0.10;0.10;;;11.00;99.90;;;;;;5059064;28;20234;-71
2022/01/04 06:15:14;;;;;;;0.30;0.30;;;11.00;99.90;;;;;;5075913;22;20083;-72
2022/01/04 06:17:49;;;;;;;0.00;0.00;;;11.00;99.90;;;;;;5067119;28;20020;-72
2022/01/04 06:20:21;;;;;;;0.00;0.00;;;11.00;99.90;;;;;;5069775;28;20024;-72
2022/01/04 06:22:48;;;;;;;0.10;0.10;;;11.00;99.90;;;;;;5069911;28;20047;-72
2022/01/04 06:25:16;;;;;;;0.10;0.10;;;11.00;99.90;;;;;;5067988;28;20036;-72
2022/01/04 06:27:43;;;;;;;0.10;0.10;;;11.00;99.90;;;;;;5070322;28;20478;-72
2022/01/04 06:30:10;;;;;;;0.10;0.10;;;11.10;99.90;;;;;;5070175;28;20099;-71
2022/01/04 06:32:36;;;;;;;0.10;0.10;;;11.10;99.90;;;;;;5068538;28;20402;-73
2022/01/04 06:35:03;;;;;;;0.50;0.50;;;11.20;99.90;;;;;;5068597;28;20028;-72
2022/01/04 06:37:29;;;;;;;0.00;0.00;;;11.10;99.90;;;;;;5057733;28;20040;-73
2022/01/04 06:39:55;;;;;;;0.10;0.10;;;11.10;99.90;;;;;;5050293;28;20029;-72
2022/01/04 06:42:20;;;;;;;0.00;0.00;;;11.10;99.90;;;;;;5062716;28;20032;-72
2022/01/04 06:44:46;;;;;;;0.00;0.00;;;11.10;99.90;;;;;;5065508;28;20071;-71
2022/01/04 06:47:12;;;;;;;0.00;0.00;;;11.20;99.90;;;;;;5067044;28;20025;-73
2022/01/04 06:49:37;;;;;;;0.00;0.00;;;11.10;99.90;;;;;;5067112;28;20024;-72
2022/01/04 06:52:04;;;;;;;0.10;0.10;;;11.20;99.90;;;;;;5068154;28;20035;-72
2022/01/04 06:54:30;;;;;;;0.17;0.17;;;11.10;99.90;;;;;;5064299;28;20104;-72
2022/01/04 06:56:56;;;;;;;0.10;0.10;;;11.10;99.90;;;;;;5061318;28;20438;-72
2022/01/04 06:59:22;;;;;;;0.10;0.10;;;11.10;99.90;;;;;;5060754;28;20510;-72
2022/01/04 07:01:48;;;;;;;0.10;0.10;;;11.10;99.90;;;;;;5064874;28;20104;-72
2022/01/04 07:04:14;;;;;;;0.00;0.00;;;11.10;99.90;;;;;;5067119;28;20474;-74
2022/01/04 07:06:40;;;;;;;0.00;0.00;;;11.10;99.90;;;;;;5062126;28;20082;-71
2022/01/04 07:09:07;;;;;;;0.00;0.00;;;11.10;99.90;;;;;;5065388;28;20033;-71
2022/01/04 07:11:33;;;;;;;0.00;0.00;;;10.80;99.90;;;;;;5060535;28;20032;-73
2022/01/04 07:13:59;;;;;;;0.00;0.00;;;11.10;99.90;;;;;;5062525;28;20025;-73
2022/01/04 07:16:25;;;;;;;0.10;0.10;;;11.20;99.90;;;;;;5068248;28;20070;-72
2022/01/04 07:18:51;;;;;;;0.10;0.10;;;11.10;99.90;;;;;;5064209;28;20033;-74
2022/01/04 07:21:17;;;;;;;0.00;0.00;;;11.10;99.90;;;;;;5067855;28;20025;-73
2022/01/04 07:23:44;;;;;;;0.10;0.10;;;11.10;99.90;;;;;;5055992;28;20544;-74
2022/01/04 07:26:11;;;;;;;0.00;0.00;;;11.10;99.90;;;;;;5057203;28;20036;-72
2022/01/04 07:28:39;;;;;;;0.10;0.10;;;11.10;99.90;;;;;;5061835;28;20104;-72
2022/01/04 07:31:05;;;;;;;0.00;0.00;;;11.10;99.90;;;;;;5065475;28;20032;-74
2022/01/04 07:33:30;;;;;;;0.00;0.00;;;11.10;99.90;;;;;;5065664;28;20038;-72
2022/01/04 07:35:56;;;;;;;0.10;0.10;;;11.10;99.90;;;;;;5063185;28;20037;-71
2022/01/04 07:38:22;;;;;;;0.10;0.10;;;11.10;99.90;;;;;;5071860;28;20363;-72
2022/01/04 07:40:47;;;;;;;0.10;0.10;;;11.10;99.90;;;;;;5067212;28;20028;-73
2022/01/04 07:43:14;;;;;;;0.10;0.10;;;11.10;99.90;;;;;;5072429;28;20085;-72
2022/01/04 07:45:40;;;;;;;0.00;0.00;;;11.10;99.90;;;;;;5077903;28;20051;-73
2022/01/04 07:48:10;;;;;;;0.10;0.10;;;11.20;99.90;;;;;;5071965;28;20036;-73
2022/01/04 07:50:37;;;;;;;0.17;0.17;;;11.20;99.90;;;;;;5081620;28;20036;-74
2022/01/04 07:53:02;;;;;;;0.10;0.10;;;11.40;99.90;;;;;;5066540;28;20031;-72
2022/01/04 07:55:28;;;;;;;0.10;0.10;;;11.40;99.90;;;;;;5063008;28;20025;-73
2022/01/04 07:57:53;;;;;;;0.10;0.10;;;11.40;99.90;;;;;;5078015;28;20084;-72
2022/01/04 08:00:20;;;;;;;0.00;0.00;;;11.60;99.90;;;;;;5072153;28;20044;-72
2022/01/04 08:02:46;;;;;;;0.10;0.10;;;11.70;99.90;;;;;;5071301;28;20024;-72
2022/01/04 08:05:12;;;;;;;0.10;0.10;;;11.90;99.90;;;;;;5069869;28;20059;-72
2022/01/04 08:07:38;;;;;;;0.00;0.00;;;11.90;99.90;;;;;;5074163;28;20071;-74
2022/01/04 08:10:05;;;;;;;0.10;0.10;;;12.00;99.90;;;;;;5074105;28;20640;-73
2022/01/04 08:12:31;;;;;;;0.00;0.00;;;12.10;99.90;;;;;;5077339;28;20032;-73
2022/01/04 08:14:57;;;;;;;0.00;0.00;;;12.20;99.90;;;;;;5046537;28;20469;-73
2022/01/04 08:17:22;;;;;;;0.10;0.10;;;12.20;99.90;;;;;;5069731;28;20028;-72
2022/01/04 08:19:51;;;;;;;0.05;0.05;;;12.40;99.90;;;;;;5069509;28;20513;-73
2022/01/04 08:22:17;;;;;;;0.03;0.03;;;12.30;99.90;;;;;;5076111;28;20020;-73
2022/01/04 08:24:42;;;;;;;0.00;0.00;;;12.30;99.90;;;;;;5072822;28;20024;-73
2022/01/04 08:27:08;;;;;;;0.10;0.10;;;12.30;99.90;;;;;;5059874;28;20028;-74
2022/01/04 08:29:34;;;;;;;0.00;0.00;;;12.30;99.90;;;;;;5076136;28;20549;-74
2022/01/04 08:31:59;;;;;;;0.95;0.95;;;12.30;99.90;;;;;;5079272;28;20116;-74
2022/01/04 08:34:26;;;;;;;0.10;0.10;;;12.30;99.90;;;;;;5071752;28;20021;-74
2022/01/04 08:36:51;;;;;;;0.00;0.00;;;12.30;99.90;;;;;;5075127;28;20039;-73
2022/01/04 08:39:17;;;;;;;0.00;0.00;;;12.30;99.90;;;;;;5079308;28;20045;-73
2022/01/04 08:41:50;;;;;;;0.00;0.00;;;12.50;99.90;;;;;;5077521;28;20446;-74
2022/01/04 08:44:16;;;;;;;0.10;0.10;;;12.40;99.90;;;;;;5074143;28;20095;-74
2022/01/04 08:46:42;;;;;;;0.10;0.10;;;12.30;99.90;;;;;;5075726;28;20060;-78
2022/01/04 08:49:08;;;;;;;0.08;0.08;;;12.30;99.90;;;;;;5072219;28;20020;-75
2022/01/04 08:51:34;;;;;;;0.00;0.00;;;12.40;99.90;;;;;;5076467;28;20053;-74
2022/01/04 08:54:00;;;;;;;0.10;0.10;;;12.40;99.90;;;;;;5077404;28;20043;-77
2022/01/04 08:56:26;;;;;;;0.10;0.10;;;12.40;99.90;;;;;;5071444;28;20486;-76
2022/01/04 08:58:52;;;;;;;0.10;0.10;;;12.50;99.90;;;;;;5076687;28;20515;-76
2022/01/04 09:01:18;;;;;;;0.00;0.00;;;12.50;99.90;;;;;;5071747;28;20024;-75
2022/01/04 09:03:44;;;;;;;0.00;0.00;;;12.60;99.90;;;;;;5078755;28;20079;-73
2022/01/04 09:06:11;;;;;;;0.08;0.08;;;12.70;99.90;;;;;;5066791;28;20078;-75
2022/01/04 09:08:36;;;;;;;0.00;0.00;;;12.70;99.90;;;;;;5070437;28;20032;-73
2022/01/04 09:11:02;;;;;;;0.10;0.10;;;12.80;99.90;;;;;;5072359;28;20028;-76
2022/01/04 09:13:35;;;;;;;0.00;0.00;;;12.70;99.90;;;;;;5081788;28;20033;-74
2022/01/04 09:18:48;;;;;;;0.00;0.00;;;12.70;99.90;;;;;;5074297;28;20027;-74
2022/01/04 09:21:28;;;;;;;0.00;0.00;;;12.80;99.90;;;;;;5074562;28;20025;-76
2022/01/04 09:23:56;;;;;;;0.00;0.00;;;12.70;99.90;;;;;;5075956;28;20025;-74
2022/01/04 09:26:23;;;;;;;0.05;0.05;;;12.70;99.90;;;;;;5076358;28;20112;-76
2022/01/04 09:28:49;;;;;;;0.10;0.10;;;12.60;99.90;;;;;;5076220;28;20094;-76
2022/01/04 09:31:15;;;;;;;0.35;0.35;;;12.60;99.90;;;;;;5079142;28;20046;-75
2022/01/04 09:33:41;;;;;;;0.00;0.00;;;12.50;99.90;;;;;;5082462;28;20112;-74
2022/01/04 09:36:07;;;;;;;0.00;0.00;;;12.60;99.90;;;;;;5081755;28;20028;-76
2022/01/04 09:38:33;;;;;;;0.00;0.00;;;12.60;99.90;;;;;;5073946;28;20077;-74
2022/01/04 09:40:59;;;;;;;0.10;0.10;;;12.40;99.90;;;;;;5076443;28;20478;-75
2022/01/04 09:43:25;;;;;;;0.00;0.00;;;12.40;99.90;;;;;;5082194;28;20024;-78
2022/01/04 09:45:52;;;;;;;0.00;0.00;;;12.40;99.90;;;;;;5075822;28;20039;-77
2022/01/04 09:48:19;;;;;;;0.03;0.03;;;12.30;99.90;;;;;;5071202;28;20039;-76
2022/01/04 09:50:46;;;;;;;0.10;0.10;;;12.30;99.90;;;;;;5080935;28;20541;-74
2022/01/04 09:53:19;;;;;;;0.10;0.10;;;12.30;99.90;;;;;;5077423;28;20021;-76
2022/01/04 09:55:47;;;;;;;0.10;0.10;;;12.40;99.90;;;;;;5077392;28;20041;-78
2022/01/04 09:58:13;;;;;;;0.10;0.10;;;12.30;99.90;;;;;;5076230;28;20040;-73
2022/01/04 10:00:39;;;;;;;0.00;0.00;;;12.40;99.90;;;;;;5071363;28;20541;-75
2022/01/04 10:03:16;;;;;;;0.00;0.00;;;12.40;99.90;;;;;;5080923;28;20021;-76
2022/01/04 10:05:43;;;;;;;0.10;0.10;;;12.40;99.90;;;;;;5072390;28;20077;-78
2022/01/04 10:08:10;;;;;;;0.00;0.00;;;12.40;99.90;;;;;;5077861;28;20086;-76
2022/01/04 10:10:36;;;;;;;0.00;0.00;;;12.60;99.90;;;;;;5076743;28;20025;-78
2022/01/04 10:13:14;;;;;;;0.00;0.00;;;12.60;99.90;;;;;;5077275;28;20028;-75
2022/01/04 10:15:50;;;;;;;0.10;0.10;;;12.50;99.90;;;;;;5077407;28;20515;-76
2022/01/04 10:18:21;;;;;;;0.05;0.05;;;12.40;99.90;;;;;;5074773;28;20482;-76
2022/01/04 10:20:58;;;;;;;0.10;0.10;;;12.50;99.90;;;;;;5080188;28;20059;-78
2022/01/04 10:23:25;;;;;;;0.00;0.00;;;12.60;99.90;;;;;;5072885;28;20036;-78
2022/01/04 10:25:52;;;;;;;0.00;0.00;;;12.60;99.90;;;;;;5080973;28;20059;-75
2022/01/04 10:28:33;;;;;;;0.10;0.10;;;12.50;99.90;;;;;;5062833;28;20028;-80
2022/01/04 10:31:06;;;;;;;0.10;0.10;;;12.70;99.90;;;;;;5068650;28;20063;-75
2022/01/04 10:33:34;;;;;;;0.00;0.00;;;12.70;99.90;;;;;;5065821;28;20124;-76
2022/01/04 10:36:07;;;;;;;0.00;0.00;;;12.80;99.90;;;;;;5075376;28;20027;-78
2022/01/04 10:38:35;;;;;;;0.10;0.10;;;12.80;99.90;;;;;;5074143;28;20020;-77
2022/01/04 10:41:07;;;;;;;0.00;0.00;;;12.80;99.90;;;;;;5071199;28;20090;-77
2022/01/04 10:43:33;;;;;;;0.00;0.00;;;12.90;99.90;;;;;;5070090;28;20025;-78
2022/01/04 10:46:01;;;;;;;0.00;0.00;;;13.00;99.90;;;;;;5078101;28;20488;-75
2022/01/04 10:48:32;;;;;;;0.00;0.00;;;13.00;99.90;;;;;;5071337;28;20020;-76
2022/01/04 10:51:21;;;;;;;0.00;0.00;;;13.00;99.90;;;;;;5079506;28;20039;-75
2022/01/04 10:53:52;;;;;;;0.10;0.10;;;12.90;99.90;;;;;;5077234;28;20107;-75
2022/01/04 10:56:31;;;;;;;0.00;0.00;;;12.90;99.90;;;;;;5081524;28;20130;-76
2022/01/04 10:58:57;;;;;;;0.10;0.10;;;12.90;99.90;;;;;;5073362;28;20538;-75
2022/01/04 11:01:28;;;;;;;0.10;0.10;;;12.90;99.90;;;;;;5080693;28;20065;-77
2022/01/04 11:03:59;;;;;;;0.00;0.00;;;12.90;99.90;;;;;;5072335;28;20016;-75
2022/01/04 11:06:27;;;;;;;0.90;0.90;;;12.90;99.90;;;;;;5077983;28;20016;-76
2022/01/04 11:08:52;;;;;;;0.00;0.00;;;12.90;99.90;;;;;;5077545;28;20028;-75
2022/01/04 11:11:18;;;;;;;0.10;0.10;;;12.90;99.90;;;;;;5075152;28;20436;-75
2022/01/04 11:13:44;;;;;;;0.10;0.10;;;13.00;99.90;;;;;;5081626;28;20020;-74
2022/01/04 11:16:10;;;;;;;0.00;0.00;;;13.00;99.90;;;;;;5073512;28;20040;-77
2022/01/04 11:18:41;;;;;;;0.00;0.00;;;13.10;99.90;;;;;;5072991;28;20028;-73
2022/01/04 11:21:13;;;;;;;0.10;0.10;;;13.10;99.90;;;;;;5082792;28;20013;-75
2022/01/04 11:23:40;;;;;;;0.00;0.00;;;13.10;99.90;;;;;;5072529;28;20021;-78
2022/01/04 11:26:06;;;;;;;0.15;0.15;;;13.10;99.90;;;;;;5071655;28;20440;-77
2022/01/04 11:28:33;;;;;;;0.00;0.00;;;13.10;99.90;;;;;;5058546;28;20036;-78
2022/01/04 11:31:10;;;;;;;0.10;0.10;;;13.10;99.90;;;;;;5073168;28;20086;-76
2022/01/04 11:33:53;;;;;;;0.03;0.03;;;13.00;99.90;;;;;;5071591;28;20147;-78
2022/01/04 11:36:19;;;;;;;0.03;0.03;;;13.00;99.90;;;;;;5067890;28;20165;-74
2022/01/04 11:38:45;;;;;;;0.00;0.00;;;12.90;99.90;;;;;;5053425;28;20033;-74
2022/01/04 11:41:24;;;;;;;0.00;0.00;;;12.90;99.90;;;;;;5059030;28;20029;-74
2022/01/04 11:43:50;;;;;;;0.00;0.00;;;12.90;99.90;;;;;;5062774;28;20037;-74
2022/01/04 11:46:34;;;;;;;0.10;0.10;;;12.80;99.90;;;;;;5075725;28;20032;-76
2022/01/04 11:49:11;;;;;;;0.10;0.10;;;12.80;99.90;;;;;;5072161;28;20028;-73
2022/01/04 11:51:39;;;;;;;0.03;0.03;;;12.70;99.90;;;;;;5077276;28;20107;-75
2022/01/04 11:54:15;;;;;;;0.00;0.00;;;12.70;99.90;;;;;;5075460;28;20089;-75
2022/01/04 11:57:03;;;;;;;0.00;0.00;;;12.70;99.90;;;;;;5074949;28;20031;-76
2022/01/04 11:59:58;;;;;;;0.00;0.00;;;12.70;99.90;;;;;;5067461;28;20082;-77
2022/01/04 12:02:29;;;;;;;0.10;0.10;;;12.60;99.90;;;;;;5070371;28;20032;-77
2022/01/04 12:05:02;;;;;;;0.10;0.10;;;12.70;99.90;;;;;;5074938;28;20449;-77
2022/01/04 12:07:49;;;;;;;0.08;0.08;;;12.70;99.90;;;;;;5079230;28;20088;-75
2022/01/04 12:10:34;;;;;;;0.00;0.00;;;12.70;99.90;;;;;;5075980;28;20027;-75
2022/01/04 12:13:21;;;;;;;0.10;0.10;;;12.50;99.90;;;;;;5078687;28;20020;-74
2022/01/04 12:16:17;;;;;;;0.00;0.00;;;12.70;99.90;;;;;;5077228;28;20505;-75
2022/01/04 12:18:45;;;;;;;0.00;0.00;;;12.60;99.90;;;;;;5047009;28;20044;-77
2022/01/04 12:21:12;;;;;;;0.10;0.10;;;12.50;99.90;;;;;;5080591;28;20024;-76
2022/01/04 12:23:45;;;;;;;0.10;0.10;;;12.70;99.90;;;;;;5071166;28;20600;-76
2022/01/04 12:26:12;;;;;;;0.08;0.08;;;12.60;99.90;;;;;;5079081;28;20105;-76
2022/01/04 12:28:43;;;;;;;0.00;0.00;;;12.60;99.90;;;;;;5072910;28;20032;-75
2022/01/04 12:31:24;;;;;;;0.00;0.00;;;12.50;99.90;;;;;;5070663;28;20509;-75
2022/01/04 12:33:50;;;;;;;0.00;0.00;;;12.50;99.90;;;;;;5075511;28;20573;-75
2022/01/04 12:36:36;;;;;;;0.00;0.00;;;12.50;99.90;;;;;;5073092;28;20367;-77
2022/01/04 12:39:08;;;;;;;0.00;0.00;;;12.50;99.90;;;;;;5079347;28;20055;-76
2022/01/04 12:41:35;;;;;;;0.00;0.00;;;12.50;99.90;;;;;;5080907;28;20100;-77
2022/01/04 12:44:03;;;;;;;0.00;0.00;;;12.50;99.90;;;;;;5078067;28;20456;-75
2022/01/04 12:46:30;;;;;;;0.00;0.00;;;12.50;99.90;;;;;;5080359;28;20430;-76
2022/01/04 12:49:01;;;;;;;0.05;0.05;;;12.50;99.90;;;;;;5074121;28;20032;-77
2022/01/04 12:51:32;;;;;;;0.10;0.10;;;12.60;99.90;;;;;;5088658;22;20048;-72
2022/01/04 12:54:01;;;;;;;0.00;0.00;;;12.50;99.90;;;;;;5080202;28;20016;-73
2022/01/04 12:56:28;;;;;;;0.10;0.10;;;12.50;99.90;;;;;;5055846;28;20046;-73
2022/01/04 12:58:55;;;;;;;0.10;0.10;;;12.50;99.90;;;;;;5057746;28;20020;-73
2022/01/04 13:01:28;;;;;;;0.00;0.00;;;12.50;99.90;;;;;;5065503;28;20034;-71
2022/01/04 13:03:55;;;;;;;0.10;0.10;;;12.50;99.90;;;;;;5052041;28;20437;-70